sensor_id;sensor_type;location;lat;lon;timestamp;P1;durP1;ratioP1;P2;durP2;ratioP2
75847;SDS011;64496;47.540;19.090;2022-11-20T00:00:20;24.87;;;8.50;;
75847;SDS011;64496;47.540;19.090;2022-11-20T00:02:49;23.52;;;8.13;;
75847;SDS011;64496;47.540;19.090;2022-11-20T00:05:16;23.40;;;8.80;;
75847;SDS011;64496;47.540;19.090;2022-11-20T00:07:43;22.97;;;8.47;;
75847;SDS011;64496;47.540;19.090;2022-11-20T00:10:10;25.00;;;8.48;;
75847;SDS011;64496;47.540;19.090;2022-11-20T00:12:37;26.55;;;9.20;;
75847;SDS011;64496;47.540;19.090;2022-11-20T00:15:04;21.95;;;8.18;;
75847;SDS011;64496;47.540;19.090;2022-11-20T00:17:32;20.55;;;7.45;;
75847;SDS011;64496;47.540;19.090;2022-11-20T00:20:01;24.03;;;8.43;;
75847;SDS011;64496;47.540;19.090;2022-11-20T00:22:28;21.95;;;8.15;;
75847;SDS011;64496;47.540;19.090;2022-11-20T00:24:55;21.30;;;8.00;;
75847;SDS011;64496;47.540;19.090;2022-11-20T00:27:22;20.95;;;8.25;;
75847;SDS011;64496;47.540;19.090;2022-11-20T00:29:49;22.83;;;7.87;;
75847;SDS011;64496;47.540;19.090;2022-11-20T00:32:16;22.03;;;8.20;;
75847;SDS011;64496;47.540;19.090;2022-11-20T00:34:43;21.27;;;7.85;;
75847;SDS011;64496;47.540;19.090;2022-11-20T00:37:11;19.92;;;7.40;;
75847;SDS011;64496;47.540;19.090;2022-11-20T00:39:39;21.83;;;7.87;;
75847;SDS011;64496;47.540;19.090;2022-11-20T00:42:06;22.40;;;7.93;;
75847;SDS011;64496;47.540;19.090;2022-11-20T00:44:33;24.77;;;9.17;;
75847;SDS011;64496;47.540;19.090;2022-11-20T00:47:00;24.60;;;9.05;;
75847;SDS011;64496;47.540;19.090;2022-11-20T00:49:27;28.73;;;10.10;;
75847;SDS011;64496;47.540;19.090;2022-11-20T00:51:54;30.45;;;10.68;;
75847;SDS011;64496;47.540;19.090;2022-11-20T00:54:23;28.90;;;10.18;;
75847;SDS011;64496;47.540;19.090;2022-11-20T00:56:52;29.87;;;9.50;;
75847;SDS011;64496;47.540;19.090;2022-11-20T00:59:19;24.90;;;9.15;;
75847;SDS011;64496;47.540;19.090;2022-11-20T01:01:46;23.55;;;8.65;;
75847;SDS011;64496;47.540;19.090;2022-11-20T01:04:13;27.80;;;9.18;;
75847;SDS011;64496;47.540;19.090;2022-11-20T01:06:39;28.02;;;9.20;;
75847;SDS011;64496;47.540;19.090;2022-11-20T01:09:07;27.73;;;9.27;;
75847;SDS011;64496;47.540;19.090;2022-11-20T01:11:38;24.55;;;9.07;;
75847;SDS011;64496;47.540;19.090;2022-11-20T01:14:07;26.48;;;9.68;;
75847;SDS011;64496;47.540;19.090;2022-11-20T01:16:36;27.08;;;8.93;;
75847;SDS011;64496;47.540;19.090;2022-11-20T01:19:05;31.73;;;10.55;;
75847;SDS011;64496;47.540;19.090;2022-11-20T01:21:34;23.83;;;8.57;;
75847;SDS011;64496;47.540;19.090;2022-11-20T01:24:02;29.25;;;10.32;;
75847;SDS011;64496;47.540;19.090;2022-11-20T01:26:31;35.63;;;10.63;;
75847;SDS011;64496;47.540;19.090;2022-11-20T01:29:01;31.12;;;10.00;;
75847;SDS011;64496;47.540;19.090;2022-11-20T01:31:30;30.02;;;9.63;;
75847;SDS011;64496;47.540;19.090;2022-11-20T01:33:58;29.33;;;10.07;;
75847;SDS011;64496;47.540;19.090;2022-11-20T01:36:27;30.00;;;10.13;;
75847;SDS011;64496;47.540;19.090;2022-11-20T01:38:56;30.30;;;9.82;;
75847;SDS011;64496;47.540;19.090;2022-11-20T01:41:24;30.83;;;10.13;;
75847;SDS011;64496;47.540;19.090;2022-11-20T01:44:12;30.10;;;10.25;;
75847;SDS011;64496;47.540;19.090;2022-11-20T01:46:42;35.00;;;10.90;;
75847;SDS011;64496;47.540;19.090;2022-11-20T01:49:14;34.83;;;10.45;;
75847;SDS011;64496;47.540;19.090;2022-11-20T01:51:45;33.05;;;10.52;;
75847;SDS011;64496;47.540;19.090;2022-11-20T01:54:15;36.25;;;11.77;;
75847;SDS011;64496;47.540;19.090;2022-11-20T01:56:44;32.38;;;10.93;;
75847;SDS011;64496;47.540;19.090;2022-11-20T01:59:14;37.07;;;11.73;;
75847;SDS011;64496;47.540;19.090;2022-11-20T02:01:42;48.00;;;14.00;;
75847;SDS011;64496;47.540;19.090;2022-11-20T02:04:09;50.80;;;14.27;;
75847;SDS011;64496;47.540;19.090;2022-11-20T02:06:38;44.60;;;13.62;;
75847;SDS011;64496;47.540;19.090;2022-11-20T02:09:07;40.92;;;12.95;;
75847;SDS011;64496;47.540;19.090;2022-11-20T02:11:35;46.10;;;12.43;;
75847;SDS011;64496;47.540;19.090;2022-11-20T02:14:02;34.92;;;11.73;;
75847;SDS011;64496;47.540;19.090;2022-11-20T02:16:30;35.45;;;10.50;;
75847;SDS011;64496;47.540;19.090;2022-11-20T02:18:59;34.63;;;11.45;;
75847;SDS011;64496;47.540;19.090;2022-11-20T02:21:28;34.17;;;11.17;;
75847;SDS011;64496;47.540;19.090;2022-11-20T02:24:10;32.75;;;11.00;;
75847;SDS011;64496;47.540;19.090;2022-11-20T02:26:41;32.72;;;10.80;;
75847;SDS011;64496;47.540;19.090;2022-11-20T02:29:11;33.55;;;11.95;;
75847;SDS011;64496;47.540;19.090;2022-11-20T02:31:38;34.47;;;11.15;;
75847;SDS011;64496;47.540;19.090;2022-11-20T02:34:07;33.63;;;10.63;;
75847;SDS011;64496;47.540;19.090;2022-11-20T02:36:35;35.25;;;11.05;;
75847;SDS011;64496;47.540;19.090;2022-11-20T02:39:03;35.60;;;11.65;;
75847;SDS011;64496;47.540;19.090;2022-11-20T02:41:32;30.08;;;10.30;;
75847;SDS011;64496;47.540;19.090;2022-11-20T02:44:01;30.17;;;10.52;;
75847;SDS011;64496;47.540;19.090;2022-11-20T02:46:29;28.43;;;10.07;;
75847;SDS011;64496;47.540;19.090;2022-11-20T02:48:56;30.60;;;10.18;;
75847;SDS011;64496;47.540;19.090;2022-11-20T02:51:23;30.88;;;10.75;;
75847;SDS011;64496;47.540;19.090;2022-11-20T02:53:50;31.12;;;10.90;;
75847;SDS011;64496;47.540;19.090;2022-11-20T02:56:17;32.55;;;11.35;;
75847;SDS011;64496;47.540;19.090;2022-11-20T02:58:46;33.10;;;10.77;;
75847;SDS011;64496;47.540;19.090;2022-11-20T03:01:13;30.92;;;11.07;;
75847;SDS011;64496;47.540;19.090;2022-11-20T03:03:39;32.35;;;10.75;;
75847;SDS011;64496;47.540;19.090;2022-11-20T03:06:07;29.05;;;9.95;;
75847;SDS011;64496;47.540;19.090;2022-11-20T03:08:34;29.52;;;10.35;;
75847;SDS011;64496;47.540;19.090;2022-11-20T03:11:05;31.03;;;10.20;;
75847;SDS011;64496;47.540;19.090;2022-11-20T03:13:33;30.23;;;10.40;;
75847;SDS011;64496;47.540;19.090;2022-11-20T03:16:06;28.45;;;10.75;;
75847;SDS011;64496;47.540;19.090;2022-11-20T03:18:34;32.42;;;11.38;;
75847;SDS011;64496;47.540;19.090;2022-11-20T03:21:01;25.75;;;9.27;;
75847;SDS011;64496;47.540;19.090;2022-11-20T03:23:28;27.23;;;9.73;;
75847;SDS011;64496;47.540;19.090;2022-11-20T03:26:06;25.15;;;9.32;;
75847;SDS011;64496;47.540;19.090;2022-11-20T03:28:34;28.25;;;9.82;;
75847;SDS011;64496;47.540;19.090;2022-11-20T03:31:06;29.65;;;10.75;;
75847;SDS011;64496;47.540;19.090;2022-11-20T03:33:34;30.10;;;11.05;;
75847;SDS011;64496;47.540;19.090;2022-11-20T03:36:01;32.93;;;11.33;;
75847;SDS011;64496;47.540;19.090;2022-11-20T03:38:28;38.90;;;13.02;;
75847;SDS011;64496;47.540;19.090;2022-11-20T03:40:57;38.92;;;12.90;;
75847;SDS011;64496;47.540;19.090;2022-11-20T03:43:25;33.88;;;11.98;;
75847;SDS011;64496;47.540;19.090;2022-11-20T03:45:52;28.15;;;10.63;;
75847;SDS011;64496;47.540;19.090;2022-11-20T03:48:20;29.47;;;10.37;;
75847;SDS011;64496;47.540;19.090;2022-11-20T03:50:47;26.92;;;9.77;;
75847;SDS011;64496;47.540;19.090;2022-11-20T03:53:14;28.38;;;10.57;;
75847;SDS011;64496;47.540;19.090;2022-11-20T03:55:41;28.08;;;10.63;;
75847;SDS011;64496;47.540;19.090;2022-11-20T03:58:09;25.83;;;10.50;;
75847;SDS011;64496;47.540;19.090;2022-11-20T04:00:36;29.53;;;10.43;;
75847;SDS011;64496;47.540;19.090;2022-11-20T04:03:03;29.52;;;10.90;;
75847;SDS011;64496;47.540;19.090;2022-11-20T04:05:32;28.87;;;10.48;;
75847;SDS011;64496;47.540;19.090;2022-11-20T04:07:59;26.87;;;9.93;;
75847;SDS011;64496;47.540;19.090;2022-11-20T04:10:26;28.80;;;10.40;;
75847;SDS011;64496;47.540;19.090;2022-11-20T04:12:53;29.03;;;10.47;;
75847;SDS011;64496;47.540;19.090;2022-11-20T04:15:20;28.58;;;10.32;;
75847;SDS011;64496;47.540;19.090;2022-11-20T04:17:47;27.20;;;10.82;;
75847;SDS011;64496;47.540;19.090;2022-11-20T04:20:14;26.27;;;9.88;;
75847;SDS011;64496;47.540;19.090;2022-11-20T04:22:42;27.90;;;10.45;;
75847;SDS011;64496;47.540;19.090;2022-11-20T04:25:09;27.07;;;10.60;;
75847;SDS011;64496;47.540;19.090;2022-11-20T04:27:36;27.13;;;10.27;;
75847;SDS011;64496;47.540;19.090;2022-11-20T04:30:03;27.37;;;9.27;;
75847;SDS011;64496;47.540;19.090;2022-11-20T04:32:31;26.42;;;10.20;;
75847;SDS011;64496;47.540;19.090;2022-11-20T04:34:58;26.83;;;9.75;;
75847;SDS011;64496;47.540;19.090;2022-11-20T04:37:25;25.43;;;10.27;;
75847;SDS011;64496;47.540;19.090;2022-11-20T04:39:53;28.30;;;9.82;;
75847;SDS011;64496;47.540;19.090;2022-11-20T04:42:20;26.48;;;10.18;;
75847;SDS011;64496;47.540;19.090;2022-11-20T04:44:56;30.02;;;10.77;;
75847;SDS011;64496;47.540;19.090;2022-11-20T04:47:23;27.70;;;10.02;;
75847;SDS011;64496;47.540;19.090;2022-11-20T04:49:50;30.13;;;10.37;;
75847;SDS011;64496;47.540;19.090;2022-11-20T04:52:17;28.58;;;10.23;;
75847;SDS011;64496;47.540;19.090;2022-11-20T04:54:44;28.40;;;10.88;;
75847;SDS011;64496;47.540;19.090;2022-11-20T04:57:13;30.08;;;10.45;;
75847;SDS011;64496;47.540;19.090;2022-11-20T04:59:41;29.70;;;10.52;;
75847;SDS011;64496;47.540;19.090;2022-11-20T05:02:08;31.10;;;10.20;;
75847;SDS011;64496;47.540;19.090;2022-11-20T05:04:35;27.33;;;10.25;;
75847;SDS011;64496;47.540;19.090;2022-11-20T05:07:02;27.27;;;9.88;;
75847;SDS011;64496;47.540;19.090;2022-11-20T05:09:29;24.00;;;9.73;;
75847;SDS011;64496;47.540;19.090;2022-11-20T05:11:56;25.85;;;9.68;;
75847;SDS011;64496;47.540;19.090;2022-11-20T05:14:25;30.13;;;10.10;;
75847;SDS011;64496;47.540;19.090;2022-11-20T05:16:52;26.02;;;10.52;;
75847;SDS011;64496;47.540;19.090;2022-11-20T05:19:19;28.65;;;10.35;;
75847;SDS011;64496;47.540;19.090;2022-11-20T05:21:46;25.65;;;9.85;;
75847;SDS011;64496;47.540;19.090;2022-11-20T05:24:13;27.37;;;10.40;;
75847;SDS011;64496;47.540;19.090;2022-11-20T05:26:40;27.63;;;9.73;;
75847;SDS011;64496;47.540;19.090;2022-11-20T05:29:09;28.08;;;9.85;;
75847;SDS011;64496;47.540;19.090;2022-11-20T05:31:38;28.12;;;10.05;;
75847;SDS011;64496;47.540;19.090;2022-11-20T05:34:05;30.40;;;10.55;;
75847;SDS011;64496;47.540;19.090;2022-11-20T05:36:33;28.62;;;10.27;;
75847;SDS011;64496;47.540;19.090;2022-11-20T05:39:00;27.37;;;10.73;;
75847;SDS011;64496;47.540;19.090;2022-11-20T05:41:27;25.37;;;10.10;;
75847;SDS011;64496;47.540;19.090;2022-11-20T05:43:55;27.05;;;10.50;;
75847;SDS011;64496;47.540;19.090;2022-11-20T05:46:23;26.52;;;10.43;;
75847;SDS011;64496;47.540;19.090;2022-11-20T05:48:51;26.67;;;9.85;;
75847;SDS011;64496;47.540;19.090;2022-11-20T05:51:18;26.33;;;10.70;;
75847;SDS011;64496;47.540;19.090;2022-11-20T05:53:45;26.73;;;11.38;;
75847;SDS011;64496;47.540;19.090;2022-11-20T05:56:13;27.67;;;10.80;;
75847;SDS011;64496;47.540;19.090;2022-11-20T05:58:41;29.83;;;11.23;;
75847;SDS011;64496;47.540;19.090;2022-11-20T06:01:09;30.25;;;12.60;;
75847;SDS011;64496;47.540;19.090;2022-11-20T06:03:38;30.40;;;11.80;;
75847;SDS011;64496;47.540;19.090;2022-11-20T06:06:07;31.00;;;11.30;;
75847;SDS011;64496;47.540;19.090;2022-11-20T06:08:34;29.45;;;10.77;;
75847;SDS011;64496;47.540;19.090;2022-11-20T06:11:04;27.80;;;9.55;;
75847;SDS011;64496;47.540;19.090;2022-11-20T06:13:32;29.23;;;10.02;;
75847;SDS011;64496;47.540;19.090;2022-11-20T06:16:00;25.17;;;9.80;;
75847;SDS011;64496;47.540;19.090;2022-11-20T06:18:27;26.12;;;9.75;;
75847;SDS011;64496;47.540;19.090;2022-11-20T06:21:00;24.65;;;9.77;;
75847;SDS011;64496;47.540;19.090;2022-11-20T06:23:30;24.20;;;9.43;;
75847;SDS011;64496;47.540;19.090;2022-11-20T06:26:16;27.02;;;10.63;;
75847;SDS011;64496;47.540;19.090;2022-11-20T06:28:45;26.77;;;10.43;;
75847;SDS011;64496;47.540;19.090;2022-11-20T06:31:13;25.42;;;9.45;;
75847;SDS011;64496;47.540;19.090;2022-11-20T06:33:41;26.25;;;9.50;;
75847;SDS011;64496;47.540;19.090;2022-11-20T06:36:09;26.90;;;9.25;;
75847;SDS011;64496;47.540;19.090;2022-11-20T06:38:38;25.08;;;9.13;;
75847;SDS011;64496;47.540;19.090;2022-11-20T06:41:05;26.73;;;9.40;;
75847;SDS011;64496;47.540;19.090;2022-11-20T06:43:33;25.08;;;9.18;;
75847;SDS011;64496;47.540;19.090;2022-11-20T06:46:00;24.48;;;9.07;;
75847;SDS011;64496;47.540;19.090;2022-11-20T06:48:27;25.52;;;9.32;;
75847;SDS011;64496;47.540;19.090;2022-11-20T06:50:54;25.75;;;8.98;;
75847;SDS011;64496;47.540;19.090;2022-11-20T06:53:21;25.97;;;9.10;;
75847;SDS011;64496;47.540;19.090;2022-11-20T06:55:50;24.12;;;9.32;;
75847;SDS011;64496;47.540;19.090;2022-11-20T06:58:18;24.02;;;9.18;;
75847;SDS011;64496;47.540;19.090;2022-11-20T07:00:45;23.85;;;8.95;;
75847;SDS011;64496;47.540;19.090;2022-11-20T07:03:12;23.92;;;9.15;;
75847;SDS011;64496;47.540;19.090;2022-11-20T07:05:39;26.57;;;8.83;;
75847;SDS011;64496;47.540;19.090;2022-11-20T07:08:07;26.98;;;9.77;;
75847;SDS011;64496;47.540;19.090;2022-11-20T07:10:34;28.75;;;10.18;;
75847;SDS011;64496;47.540;19.090;2022-11-20T07:13:03;23.73;;;8.60;;
75847;SDS011;64496;47.540;19.090;2022-11-20T07:15:30;24.35;;;9.32;;
75847;SDS011;64496;47.540;19.090;2022-11-20T07:17:58;27.37;;;9.30;;
75847;SDS011;64496;47.540;19.090;2022-11-20T07:20:25;27.05;;;9.77;;
75847;SDS011;64496;47.540;19.090;2022-11-20T07:22:53;28.05;;;10.15;;
75847;SDS011;64496;47.540;19.090;2022-11-20T07:25:20;25.10;;;9.40;;
75847;SDS011;64496;47.540;19.090;2022-11-20T07:27:47;26.48;;;9.30;;
75847;SDS011;64496;47.540;19.090;2022-11-20T07:30:15;27.77;;;10.07;;
75847;SDS011;64496;47.540;19.090;2022-11-20T07:32:45;28.73;;;10.05;;
75847;SDS011;64496;47.540;19.090;2022-11-20T07:35:13;25.27;;;9.27;;
75847;SDS011;64496;47.540;19.090;2022-11-20T07:37:40;27.62;;;9.85;;
75847;SDS011;64496;47.540;19.090;2022-11-20T07:40:07;27.85;;;9.77;;
75847;SDS011;64496;47.540;19.090;2022-11-20T07:42:35;26.13;;;10.37;;
75847;SDS011;64496;47.540;19.090;2022-11-20T07:45:02;25.02;;;10.15;;
75847;SDS011;64496;47.540;19.090;2022-11-20T07:47:35;29.12;;;10.63;;
75847;SDS011;64496;47.540;19.090;2022-11-20T07:50:03;26.62;;;10.55;;
75847;SDS011;64496;47.540;19.090;2022-11-20T07:52:32;25.73;;;10.52;;
75847;SDS011;64496;47.540;19.090;2022-11-20T07:54:59;29.23;;;10.90;;
75847;SDS011;64496;47.540;19.090;2022-11-20T07:57:27;28.30;;;11.48;;
75847;SDS011;64496;47.540;19.090;2022-11-20T07:59:54;26.98;;;10.55;;
75847;SDS011;64496;47.540;19.090;2022-11-20T08:02:21;24.70;;;9.48;;
75847;SDS011;64496;47.540;19.090;2022-11-20T08:04:49;28.27;;;10.68;;
75847;SDS011;64496;47.540;19.090;2022-11-20T08:07:16;28.60;;;10.93;;
75847;SDS011;64496;47.540;19.090;2022-11-20T08:09:43;30.85;;;11.73;;
75847;SDS011;64496;47.540;19.090;2022-11-20T08:12:10;28.58;;;11.20;;
75847;SDS011;64496;47.540;19.090;2022-11-20T08:15:00;29.70;;;11.27;;
75847;SDS011;64496;47.540;19.090;2022-11-20T08:17:28;31.87;;;11.68;;
75847;SDS011;64496;47.540;19.090;2022-11-20T08:19:56;30.80;;;11.80;;
75847;SDS011;64496;47.540;19.090;2022-11-20T08:22:23;31.83;;;12.63;;
75847;SDS011;64496;47.540;19.090;2022-11-20T08:24:51;31.60;;;12.43;;
75847;SDS011;64496;47.540;19.090;2022-11-20T08:27:18;34.97;;;13.65;;
75847;SDS011;64496;47.540;19.090;2022-11-20T08:29:45;32.50;;;12.90;;
75847;SDS011;64496;47.540;19.090;2022-11-20T08:32:12;36.00;;;13.83;;
75847;SDS011;64496;47.540;19.090;2022-11-20T08:34:39;36.38;;;14.73;;
75847;SDS011;64496;47.540;19.090;2022-11-20T08:37:08;37.60;;;14.90;;
75847;SDS011;64496;47.540;19.090;2022-11-20T08:39:35;38.17;;;15.27;;
75847;SDS011;64496;47.540;19.090;2022-11-20T08:42:06;34.47;;;13.65;;
75847;SDS011;64496;47.540;19.090;2022-11-20T08:44:33;32.77;;;13.23;;
75847;SDS011;64496;47.540;19.090;2022-11-20T08:47:00;34.28;;;13.90;;
75847;SDS011;64496;47.540;19.090;2022-11-20T08:49:27;31.50;;;13.57;;
75847;SDS011;64496;47.540;19.090;2022-11-20T08:51:54;32.85;;;13.65;;
75847;SDS011;64496;47.540;19.090;2022-11-20T08:54:22;30.15;;;12.27;;
75847;SDS011;64496;47.540;19.090;2022-11-20T08:56:50;31.73;;;12.43;;
75847;SDS011;64496;47.540;19.090;2022-11-20T08:59:16;29.80;;;11.88;;
75847;SDS011;64496;47.540;19.090;2022-11-20T09:01:44;32.33;;;12.27;;
75847;SDS011;64496;47.540;19.090;2022-11-20T09:04:10;26.92;;;11.20;;
75847;SDS011;64496;47.540;19.090;2022-11-20T09:06:39;25.85;;;10.35;;
75847;SDS011;64496;47.540;19.090;2022-11-20T09:09:06;26.53;;;11.23;;
75847;SDS011;64496;47.540;19.090;2022-11-20T09:11:35;29.42;;;11.23;;
75847;SDS011;64496;47.540;19.090;2022-11-20T09:14:02;28.08;;;10.82;;
75847;SDS011;64496;47.540;19.090;2022-11-20T09:16:30;26.60;;;11.05;;
75847;SDS011;64496;47.540;19.090;2022-11-20T09:18:56;28.10;;;11.35;;
75847;SDS011;64496;47.540;19.090;2022-11-20T09:21:23;27.00;;;11.13;;
75847;SDS011;64496;47.540;19.090;2022-11-20T09:23:50;29.67;;;12.02;;
75847;SDS011;64496;47.540;19.090;2022-11-20T09:26:17;26.30;;;11.07;;
75847;SDS011;64496;47.540;19.090;2022-11-20T09:28:46;28.65;;;11.50;;
75847;SDS011;64496;47.540;19.090;2022-11-20T09:31:16;29.37;;;11.50;;
75847;SDS011;64496;47.540;19.090;2022-11-20T09:33:46;29.40;;;10.97;;
75847;SDS011;64496;47.540;19.090;2022-11-20T09:36:13;27.48;;;10.80;;
75847;SDS011;64496;47.540;19.090;2022-11-20T09:38:41;29.23;;;11.20;;
75847;SDS011;64496;47.540;19.090;2022-11-20T09:41:10;29.85;;;11.10;;
75847;SDS011;64496;47.540;19.090;2022-11-20T09:43:58;26.45;;;10.27;;
75847;SDS011;64496;47.540;19.090;2022-11-20T09:46:32;26.33;;;9.77;;
75847;SDS011;64496;47.540;19.090;2022-11-20T09:49:06;29.45;;;11.35;;
75847;SDS011;64496;47.540;19.090;2022-11-20T09:51:43;26.10;;;10.57;;
75847;SDS011;64496;47.540;19.090;2022-11-20T09:54:15;26.35;;;10.82;;
75847;SDS011;64496;47.540;19.090;2022-11-20T09:56:44;24.48;;;10.25;;
75847;SDS011;64496;47.540;19.090;2022-11-20T09:59:26;29.07;;;11.00;;
75847;SDS011;64496;47.540;19.090;2022-11-20T10:02:00;24.50;;;10.45;;
75847;SDS011;64496;47.540;19.090;2022-11-20T10:04:29;27.77;;;10.80;;
75847;SDS011;64496;47.540;19.090;2022-11-20T10:07:00;25.08;;;10.48;;
75847;SDS011;64496;47.540;19.090;2022-11-20T10:09:31;27.08;;;11.48;;
75847;SDS011;64496;47.540;19.090;2022-11-20T10:12:05;26.23;;;10.93;;
75847;SDS011;64496;47.540;19.090;2022-11-20T10:14:41;29.05;;;11.10;;
75847;SDS011;64496;47.540;19.090;2022-11-20T10:17:16;25.83;;;10.63;;
75847;SDS011;64496;47.540;19.090;2022-11-20T10:19:50;27.70;;;11.50;;
75847;SDS011;64496;47.540;19.090;2022-11-20T10:22:27;25.92;;;11.02;;
75847;SDS011;64496;47.540;19.090;2022-11-20T10:25:03;28.23;;;10.73;;
75847;SDS011;64496;47.540;19.090;2022-11-20T10:27:37;24.73;;;10.65;;
75847;SDS011;64496;47.540;19.090;2022-11-20T10:30:12;22.60;;;9.68;;
75847;SDS011;64496;47.540;19.090;2022-11-20T10:32:41;21.92;;;9.23;;
75847;SDS011;64496;47.540;19.090;2022-11-20T10:35:14;23.00;;;9.90;;
75847;SDS011;64496;47.540;19.090;2022-11-20T10:37:46;23.43;;;9.70;;
75847;SDS011;64496;47.540;19.090;2022-11-20T10:40:18;24.77;;;10.27;;
75847;SDS011;64496;47.540;19.090;2022-11-20T10:42:49;23.83;;;10.73;;
75847;SDS011;64496;47.540;19.090;2022-11-20T10:45:21;26.12;;;10.25;;
75847;SDS011;64496;47.540;19.090;2022-11-20T10:48:01;23.65;;;10.15;;
75847;SDS011;64496;47.540;19.090;2022-11-20T10:50:37;24.80;;;10.70;;
75847;SDS011;64496;47.540;19.090;2022-11-20T10:53:16;25.70;;;11.32;;
75847;SDS011;64496;47.540;19.090;2022-11-20T10:55:50;24.25;;;10.27;;
75847;SDS011;64496;47.540;19.090;2022-11-20T10:58:22;24.92;;;10.68;;
75847;SDS011;64496;47.540;19.090;2022-11-20T11:01:04;24.58;;;9.90;;
75847;SDS011;64496;47.540;19.090;2022-11-20T11:03:31;25.20;;;10.20;;
75847;SDS011;64496;47.540;19.090;2022-11-20T11:06:00;23.48;;;10.20;;
75847;SDS011;64496;47.540;19.090;2022-11-20T11:08:32;26.75;;;10.73;;
75847;SDS011;64496;47.540;19.090;2022-11-20T11:11:02;24.02;;;10.35;;
75847;SDS011;64496;47.540;19.090;2022-11-20T11:13:39;25.35;;;10.80;;
75847;SDS011;64496;47.540;19.090;2022-11-20T11:16:17;27.43;;;10.97;;
75847;SDS011;64496;47.540;19.090;2022-11-20T11:18:47;24.25;;;10.38;;
75847;SDS011;64496;47.540;19.090;2022-11-20T11:21:20;25.05;;;10.63;;
75847;SDS011;64496;47.540;19.090;2022-11-20T11:23:48;26.70;;;11.18;;
75847;SDS011;64496;47.540;19.090;2022-11-20T11:26:24;29.40;;;11.43;;
75847;SDS011;64496;47.540;19.090;2022-11-20T11:28:53;25.47;;;10.57;;
75847;SDS011;64496;47.540;19.090;2022-11-20T11:31:25;27.08;;;11.40;;
75847;SDS011;64496;47.540;19.090;2022-11-20T11:34:03;28.55;;;11.73;;
75847;SDS011;64496;47.540;19.090;2022-11-20T11:36:30;27.15;;;11.15;;
75847;SDS011;64496;47.540;19.090;2022-11-20T11:38:59;28.10;;;12.05;;
75847;SDS011;64496;47.540;19.090;2022-11-20T11:41:28;26.57;;;11.40;;
75847;SDS011;64496;47.540;19.090;2022-11-20T11:43:57;28.67;;;11.85;;
75847;SDS011;64496;47.540;19.090;2022-11-20T11:46:49;27.95;;;11.40;;
75847;SDS011;64496;47.540;19.090;2022-11-20T11:49:19;28.30;;;11.57;;
75847;SDS011;64496;47.540;19.090;2022-11-20T11:51:50;26.42;;;10.68;;
75847;SDS011;64496;47.540;19.090;2022-11-20T11:54:27;27.33;;;11.37;;
75847;SDS011;64496;47.540;19.090;2022-11-20T11:56:58;24.55;;;11.32;;
75847;SDS011;64496;47.540;19.090;2022-11-20T11:59:26;27.45;;;12.13;;
75847;SDS011;64496;47.540;19.090;2022-11-20T12:01:57;28.33;;;12.30;;
75847;SDS011;64496;47.540;19.090;2022-11-20T12:04:33;29.15;;;12.02;;
75847;SDS011;64496;47.540;19.090;2022-11-20T12:07:08;28.47;;;11.93;;
75847;SDS011;64496;47.540;19.090;2022-11-20T12:09:41;29.30;;;11.68;;
75847;SDS011;64496;47.540;19.090;2022-11-20T12:12:11;29.90;;;12.48;;
75847;SDS011;64496;47.540;19.090;2022-11-20T12:14:42;29.92;;;12.07;;
75847;SDS011;64496;47.540;19.090;2022-11-20T12:17:14;28.80;;;12.15;;
75847;SDS011;64496;47.540;19.090;2022-11-20T12:19:41;28.57;;;12.13;;
75847;SDS011;64496;47.540;19.090;2022-11-20T12:22:11;30.17;;;12.25;;
75847;SDS011;64496;47.540;19.090;2022-11-20T12:24:48;31.02;;;12.63;;
75847;SDS011;64496;47.540;19.090;2022-11-20T12:30:08;31.02;;;12.43;;
75847;SDS011;64496;47.540;19.090;2022-11-20T12:32:47;29.33;;;11.90;;
75847;SDS011;64496;47.540;19.090;2022-11-20T12:35:29;28.27;;;11.60;;
75847;SDS011;64496;47.540;19.090;2022-11-20T12:38:08;30.88;;;11.95;;
75847;SDS011;64496;47.540;19.090;2022-11-20T12:40:50;31.23;;;13.45;;
75847;SDS011;64496;47.540;19.090;2022-11-20T12:43:24;32.05;;;13.68;;
75847;SDS011;64496;47.540;19.090;2022-11-20T12:46:13;30.03;;;12.50;;
75847;SDS011;64496;47.540;19.090;2022-11-20T12:48:55;30.62;;;12.30;;
75847;SDS011;64496;47.540;19.090;2022-11-20T12:51:55;31.95;;;12.60;;
75847;SDS011;64496;47.540;19.090;2022-11-20T12:54:34;30.25;;;12.82;;
75847;SDS011;64496;47.540;19.090;2022-11-20T12:57:13;28.45;;;11.45;;
75847;SDS011;64496;47.540;19.090;2022-11-20T12:59:49;28.60;;;12.10;;
75847;SDS011;64496;47.540;19.090;2022-11-20T13:02:27;30.90;;;12.43;;
75847;SDS011;64496;47.540;19.090;2022-11-20T13:05:12;30.27;;;12.80;;
75847;SDS011;64496;47.540;19.090;2022-11-20T13:07:47;29.12;;;12.05;;
75847;SDS011;64496;47.540;19.090;2022-11-20T13:10:18;28.38;;;12.23;;
75847;SDS011;64496;47.540;19.090;2022-11-20T13:12:54;28.23;;;11.50;;
75847;SDS011;64496;47.540;19.090;2022-11-20T13:15:30;29.25;;;12.18;;
75847;SDS011;64496;47.540;19.090;2022-11-20T13:18:08;29.50;;;12.30;;
75847;SDS011;64496;47.540;19.090;2022-11-20T13:20:41;30.55;;;11.70;;
75847;SDS011;64496;47.540;19.090;2022-11-20T13:23:10;29.48;;;11.48;;
75847;SDS011;64496;47.540;19.090;2022-11-20T13:25:38;28.47;;;11.50;;
75847;SDS011;64496;47.540;19.090;2022-11-20T13:30:53;29.17;;;11.65;;
75847;SDS011;64496;47.540;19.090;2022-11-20T13:33:22;27.75;;;11.55;;
75847;SDS011;64496;47.540;19.090;2022-11-20T13:35:56;34.55;;;12.73;;
75847;SDS011;64496;47.540;19.090;2022-11-20T13:38:24;30.43;;;12.17;;
75847;SDS011;64496;47.540;19.090;2022-11-20T13:40:52;29.85;;;11.57;;
75847;SDS011;64496;47.540;19.090;2022-11-20T13:43:21;26.08;;;10.95;;
75847;SDS011;64496;47.540;19.090;2022-11-20T13:45:54;29.48;;;11.30;;
75847;SDS011;64496;47.540;19.090;2022-11-20T13:48:23;28.10;;;11.73;;
75847;SDS011;64496;47.540;19.090;2022-11-20T13:50:56;27.57;;;11.07;;
75847;SDS011;64496;47.540;19.090;2022-11-20T13:53:46;28.17;;;11.50;;
75847;SDS011;64496;47.540;19.090;2022-11-20T13:56:22;32.65;;;12.20;;
75847;SDS011;64496;47.540;19.090;2022-11-20T13:58:54;31.35;;;12.23;;
75847;SDS011;64496;47.540;19.090;2022-11-20T14:01:26;26.58;;;11.35;;
75847;SDS011;64496;47.540;19.090;2022-11-20T14:03:56;27.37;;;11.57;;
75847;SDS011;64496;47.540;19.090;2022-11-20T14:06:27;29.98;;;12.90;;
75847;SDS011;64496;47.540;19.090;2022-11-20T14:08:57;30.60;;;11.32;;
75847;SDS011;64496;47.540;19.090;2022-11-20T14:11:25;29.50;;;11.43;;
75847;SDS011;64496;47.540;19.090;2022-11-20T14:13:57;28.15;;;11.32;;
75847;SDS011;64496;47.540;19.090;2022-11-20T14:16:26;27.03;;;11.60;;
75847;SDS011;64496;47.540;19.090;2022-11-20T14:18:56;29.27;;;11.90;;
75847;SDS011;64496;47.540;19.090;2022-11-20T14:21:25;29.60;;;11.95;;
75847;SDS011;64496;47.540;19.090;2022-11-20T14:24:02;26.50;;;11.15;;
75847;SDS011;64496;47.540;19.090;2022-11-20T14:26:30;28.50;;;11.77;;
75847;SDS011;64496;47.540;19.090;2022-11-20T14:28:58;31.23;;;11.93;;
75847;SDS011;64496;47.540;19.090;2022-11-20T14:31:26;28.92;;;12.25;;